Latest Coastal Weather Observations for Flinders Island Airport

IDT60701

Issued at 7:11 am EDT Tuesday 31 March 2015 (issued every 10 minutes, with the page automatically refreshed every 10 minutes)

About coastal observations | Map of coastal stations | Coastal observations for TAS | Marine services | Other Formats
Station Details ID: 099005 Name: FLINDERS ISLAND AIRPORT Lat: -40.09 Lon: 148.00 Height: 9.0 m
Data from the previous 72 hours. | See also: Recent months at Flinders Island Airport
Date/Time
EDT
Temp

°C
Wind Pressure Rain
since 9am
mm
Weather Cloud Vis
km
Sea
Height
m
Swell
Dir
 
Speed
knots
Gust
knots
hPa Trend Height
m
Period
s
Dir
31/07:00am 15.9 WNW 9 14 1025.3 - 0.0 - Partly cloudy 10 - - - -
31/06:57am 15.8 WNW 10 14 1025.3 - 0.0 - Partly cloudy 10 - - - -
31/06:44am 15.2 WNW 7 10 1025.2 - 0.0 - Partly cloudy 10 - - - -
31/06:30am 15.6 WNW 8 10 1025.1 - 0.0 - Partly cloudy 10 - - - -
31/06:00am 16.0 WNW 9 13 1024.9 - 0.0 - Cloudy 10 - - - -
31/05:30am 15.7 WNW 9 11 1024.9 - 0.0 - Partly cloudy 10 - - - -
31/05:00am 16.0 W 8 11 1024.8 - 0.0 - Partly cloudy 10 - - - -
31/04:30am 15.5 WNW 8 9 1024.7 - 0.0 - Partly cloudy 10 - - - -
31/04:00am 15.8 W 9 10 1024.7 - 0.0 - Partly cloudy 10 - - - -
31/03:30am 15.9 W 9 10 1024.7 - 0.0 - Cloudy 10 - - - -
31/03:00am 16.4 W 12 15 1024.8 - 0.0 - Cloudy 10 - - - -
31/02:30am 16.3 WSW 15 18 1024.9 - 0.0 - Cloudy 10 - - - -
31/02:00am 15.9 WSW 15 18 1024.9 - 0.0 - Partly cloudy 10 - - - -
31/01:30am 16.3 W 16 20 1024.8 - 0.0 - Partly cloudy 10 - - - -
31/01:00am 16.4 W 17 21 1024.8 - 0.0 - Partly cloudy 10 - - - -
31/12:30am 16.4 WSW 17 20 1024.8 - 0.0 - Partly cloudy 10 - - - -
31/12:00am 16.5 W 17 20 1024.8 - 0.0 - Mostly cloudy 10 - - - -
 
Date/Time
EDT
Temp

°C
Wind Pressure Rain
since 9am
mm
Weather Cloud Vis
km
Sea
Height
m
Swell
Dir
 
Speed
knots
Gust
knots
hPa Trend Height
m
Period
s
Dir
30/11:30pm 16.7 W 18 21 1024.9 - 0.0 - Partly cloudy 10 - - - -
30/11:19pm 16.5 W 18 22 1025.0 - 0.0 - Partly cloudy 10 - - - -
30/11:00pm 16.4 W 17 21 1025.0 - 0.0 - Partly cloudy 10 - - - -
30/10:30pm 16.6 W 19 22 1024.9 - 0.0 - Partly cloudy 10 - - - -
30/10:00pm 16.7 W 20 22 1024.8 - 0.0 - Partly cloudy 10 - - - -
30/09:30pm 16.8 W 18 22 1024.7 - 0.0 - Partly cloudy 10 - - - -
30/09:00pm 16.7 W 17 21 1024.5 - 0.0 - Mostly clear 10 - - - -
30/08:30pm 16.8 W 17 20 1024.5 - 0.0 - Partly cloudy 10 - - - -
30/08:00pm 17.0 W 16 19 1024.3 - 0.0 - Partly cloudy 10 - - - -
30/07:30pm 16.6 W 15 18 1023.8 - 0.0 - - 10 - - - -
30/07:00pm 17.0 W 17 21 1023.6 - 0.0 - Partly cloudy 10 - - - -
30/06:55pm 17.1 W 17 20 1023.5 - 0.0 - Partly cloudy 10 - - - -
30/06:41pm 17.4 W 18 22 1023.4 - 0.0 - Partly cloudy 10 - - - -
30/06:30pm 17.4 W 18 21 1023.3 - 0.0 - Partly cloudy 10 - - - -
30/06:00pm 18.0 W 17 21 1022.8 - 0.0 - Partly cloudy 10 - - - -
30/05:30pm 18.1 W 16 22 1022.5 - 0.0 - Partly cloudy 10 - - - -
30/05:00pm 18.3 W 18 22 1022.3 - 0.0 - Partly cloudy 10 - - - -
30/04:30pm 18.8 W 17 20 1022.2 - 0.0 - Partly cloudy 10 - - - -
30/04:00pm 19.0 W 19 22 1022.3 - 0.0 - Partly cloudy 10 - - - -
30/03:30pm 19.2 W 19 25 1022.3 - 0.0 - Partly cloudy 10 - - - -
30/03:04pm 19.7 W 18 22 1022.4 - 0.0 - Partly cloudy 10 - - - -
30/03:00pm 19.3 W 18 22 1022.3 - 0.0 - Cloudy 10 - - - -
30/02:30pm 18.9 W 18 23 1022.5 - 0.0 - Partly cloudy 10 - - - -
30/02:01pm 19.1 W 18 23 1022.6 - 0.0 - Partly cloudy 10 - - - -
30/02:00pm 19.2 W 18 23 1022.6 - 0.0 - Partly cloudy 10 - - - -
30/01:30pm 19.2 W 19 23 1022.7 - 0.0 - Partly cloudy 10 - - - -
30/01:00pm 19.5 WNW 17 22 1022.9 - 0.0 - Partly cloudy 10 - - - -
30/12:30pm 19.1 WNW 17 21 1023.0 - 0.0 - Partly cloudy 10 - - - -
30/12:00pm 18.9 WNW 16 20 1023.0 - 0.0 - - 10 - - - -
30/11:30am 19.1 WNW 16 21 1023.1 - 0.0 - Partly cloudy 10 - - - -
30/11:00am 18.8 WNW 15 21 1023.0 - 0.0 - Partly cloudy 10 - - - -
30/10:30am 18.0 WNW 15 19 1022.9 - 0.0 - Cloudy 10 - - - -
30/10:00am 17.4 WNW 16 20 1022.8 - 0.0 - Partly cloudy 10 - - - -
30/09:30am 17.6 WNW 16 21 1022.6 - 0.0 - Cloudy 10 - - - -
30/09:00am 17.2 WNW 15 20 1022.4 - 0.0 - Mostly cloudy 10 - - - -
30/08:30am 16.6 WNW 15 19 1022.1 - 0.0 - Partly cloudy 10 - - - -
30/08:00am 16.2 WNW 15 18 1021.9 - 0.0 - Partly cloudy 10 - - - -
30/07:30am 15.8 WNW 15 18 1021.7 - 0.0 - Partly cloudy 10 - - - -
30/07:00am 15.7 WNW 13 19 1021.4 - 0.0 - Partly cloudy 10 - - - -
30/06:30am 15.6 WNW 13 19 1021.2 - 0.0 - - 10 - - - -
30/06:00am 15.9 WNW 13 18 1021.1 - 0.0 - Mostly clear 10 - - - -
30/05:30am 15.6 WNW 14 17 1021.0 - 0.0 - - 10 - - - -
30/05:00am 15.7 WNW 13 18 1020.9 - 0.0 - - 10 - - - -
30/04:30am 15.6 WNW 12 16 1021.0 - 0.0 - - 10 - - - -
30/04:00am 15.7 WNW 11 15 1021.2 - 0.0 - Partly cloudy 10 - - - -
30/03:30am 15.7 WNW 11 15 1021.3 - 0.0 - Partly cloudy 10 - - - -
30/03:00am 15.6 WNW 10 14 1021.4 - 0.0 - Mostly clear 10 - - - -
30/02:30am 15.8 WNW 10 14 1021.6 - 0.0 - Partly cloudy 10 - - - -
30/02:18am 16.0 WNW 9 13 1021.7 - 0.0 - Partly cloudy 10 - - - -
30/02:00am 15.9 WNW 10 15 1021.7 - 0.0 - Partly cloudy 10 - - - -
30/01:47am 15.9 WNW 9 11 1021.7 - 0.0 - Partly cloudy 10 - - - -
30/01:30am 15.6 WNW 10 14 1021.7 - 0.0 - Partly cloudy 10 - - - -
30/01:21am 15.6 W 10 14 1021.7 - 0.0 - Partly cloudy 10 - - - -
30/01:00am 15.9 W 11 15 1021.7 - 0.0 - Partly cloudy 10 - - - -
30/12:30am 16.1 W 10 14 1021.9 - 0.0 - Partly cloudy 10 - - - -
30/12:28am 16.1 W 11 16 1021.9 - 0.0 - Partly cloudy 10 - - - -
30/12:00am 15.9 WNW 10 14 1022.0 - 0.0 - Mostly clear 10 - - - -
 
Date/Time
EDT
Temp

°C
Wind Pressure Rain
since 9am
mm
Weather Cloud Vis
km
Sea
Height
m
Swell
Dir
 
Speed
knots
Gust
knots
hPa Trend Height
m
Period
s
Dir
29/11:30pm 15.9 W 11 15 1022.1 - 0.0 - Partly cloudy 10 - - - -
29/11:00pm 16.2 W 13 17 1022.1 - 0.0 - Partly cloudy 10 - - - -
29/10:30pm 16.3 W 13 17 1022.0 - 0.0 - Partly cloudy 10 - - - -
29/10:00pm 16.2 W 15 18 1021.8 - 0.0 - Partly cloudy 10 - - - -
29/09:30pm 16.4 W 15 20 1021.6 - 0.0 - Partly cloudy 10 - - - -
29/09:00pm 16.2 W 15 19 1021.4 - 0.0 - Mostly clear 10 - - - -
29/08:40pm 16.5 W 17 22 1021.0 - 0.0 - Partly cloudy 10 - - - -
29/08:30pm 16.4 W 18 22 1020.9 - 0.0 - Partly cloudy 10 - - - -
29/08:00pm 16.5 W 17 22 1020.7 - 0.0 - Partly cloudy 10 - - - -
29/07:30pm 16.5 W 18 23 1020.3 - 0.0 - Partly cloudy 10 - - - -
29/07:00pm 16.6 W 18 23 1020.1 - 0.0 - Partly cloudy 10 - - - -
29/06:30pm 17.0 W 18 22 1019.8 - 0.0 - Partly cloudy 10 - - - -
29/06:00pm 17.9 W 18 23 1019.6 - 0.0 - Cloudy 10 - - - -
29/05:30pm 17.5 W 21 27 1019.5 - 0.0 - Partly cloudy 10 - - - -
29/05:00pm 17.8 W 20 25 1019.4 - 0.0 - Partly cloudy 10 - - - -
29/04:30pm 18.4 W 20 27 1019.2 - 0.0 - Partly cloudy 10 - - - -
29/04:00pm 18.4 W 21 27 1019.3 - 0.0 - Partly cloudy 10 - - - -
29/03:30pm 18.6 WNW 19 24 1019.1 - 0.0 - - 10 - - - -
29/03:00pm 18.6 W 19 24 1019.3 - 0.0 - Mostly clear 10 - - - -
29/02:30pm 18.2 W 18 24 1019.5 - 0.0 - Partly cloudy 10 - - - -
29/02:00pm 19.1 W 19 23 1019.7 - 0.0 - Partly cloudy 10 - - - -
29/01:30pm 18.0 W 19 22 1020.0 - 0.0 - Partly cloudy 10 - - - -
29/01:00pm 18.7 W 17 22 1020.2 - 0.0 - Partly cloudy 10 - - - -
29/12:30pm 17.6 W 17 21 1020.4 - 0.0 - Partly cloudy 10 - - - -
29/12:00pm 18.1 WNW 17 20 1020.3 - 0.0 - Cloudy 10 - - - -
29/11:30am 17.9 W 16 21 1020.5 - 0.0 - Cloudy 10 - - - -
29/11:00am 17.4 W 16 21 1020.5 - 0.0 - Partly cloudy 10 - - - -
29/10:30am 16.8 W 16 19 1020.6 - 0.0 - Partly cloudy 10 - - - -
29/10:00am 16.7 W 15 21 1020.6 - 0.0 - Partly cloudy 10 - - - -
29/09:30am 16.3 W 15 20 1020.4 - 0.0 - Partly cloudy 10 - - - -
29/09:00am 16.8 W 14 19 1020.2 - 0.0 - Partly cloudy 10 - - - -
29/08:30am 15.9 W 16 20 1020.3 - 0.0 - Partly cloudy 10 - - - -
29/08:00am 16.0 W 16 19 1020.2 - 0.0 - Cloudy 10 - - - -
29/07:30am 15.7 W 16 21 1019.9 - 0.0 - Cloudy 10 - - - -
29/07:00am 15.6 W 21 26 1019.8 - 0.0 - Partly cloudy 10 - - - -
29/06:30am 15.9 W 24 30 1019.6 - 0.0 - Cloudy 10 - - - -
29/06:00am 16.1 W 18 24 1019.1 - 0.0 - Mostly cloudy 10 - - - -
29/05:30am 15.8 WNW 16 21 1018.8 - 0.0 - Partly cloudy 10 - - - -
29/05:00am 15.4 W 18 22 1018.8 - 0.0 - Partly cloudy 10 - - - -
29/04:30am 15.4 W 18 23 1018.7 - 0.0 - Cloudy 10 - - - -
29/04:00am 15.4 W 15 20 1018.7 - 0.0 - Cloudy 10 - - - -
29/03:30am 15.3 W 15 20 1018.9 - 0.0 - Cloudy 10 - - - -
29/03:00am 15.3 W 16 21 1019.3 - 0.0 - Cloudy 10 - - - -
29/02:30am 15.1 W 17 20 1019.6 - 0.0 - Cloudy 10 - - - -
29/02:00am 15.5 W 16 21 1019.8 - 0.0 - Cloudy 10 - - - -
29/01:30am 15.4 W 15 19 1019.9 - 0.0 - Cloudy 10 - - - -
29/01:00am 15.5 W 18 22 1020.1 - 0.0 - Cloudy 10 - - - -
29/12:30am 15.3 WNW 15 20 1020.3 - 0.0 - Cloudy 10 - - - -
29/12:00am 15.3 W 15 19 1020.6 - 0.0 - Cloudy 10 - - - -
 
Date/Time
EDT
Temp

°C
Wind Pressure Rain
since 9am
mm
Weather Cloud Vis
km
Sea
Height
m
Swell
Dir
 
Speed
knots
Gust
knots
hPa Trend Height
m
Period
s
Dir
28/11:30pm 15.1 W 18 22 1020.9 - 0.0 - Cloudy 10 - - - -
28/11:00pm 15.2 W 16 22 1020.8 - 0.0 - Cloudy 10 - - - -
28/10:49pm 15.0 W 15 20 1020.8 - 0.0 - Cloudy 10 - - - -
28/10:30pm 15.0 W 16 19 1020.8 - 0.0 - Cloudy 10 - - - -
28/10:00pm 14.9 WNW 14 17 1020.8 - 0.0 - Partly cloudy 10 - - - -
28/09:30pm 15.1 W 16 20 1020.9 - 0.0 - Partly cloudy 10 - - - -
28/09:05pm 14.9 W 14 21 1020.9 - 0.0 - Partly cloudy 10 - - - -
28/09:00pm 14.8 W 16 21 1020.9 - 0.0 - Mostly cloudy 10 - - - -
28/08:30pm 14.8 W 16 20 1020.8 - 0.0 - Partly cloudy 10 - - - -
28/08:00pm 15.4 W 17 23 1020.7 - 0.0 - Cloudy 10 - - - -
28/07:30pm 15.5 W 16 21 1020.6 - 0.0 - Partly cloudy 10 - - - -
28/07:00pm 15.5 W 19 25 1020.6 - 0.0 - Partly cloudy 10 - - - -
28/06:30pm 15.4 W 16 21 1020.6 - 0.0 - Cloudy 10 - - - -
28/06:00pm 15.4 W 18 23 1020.8 - 0.0 - Cloudy 10 - - - -
28/05:40pm 15.6 W 17 21 1020.7 - 0.0 - Cloudy 10 - - - -
28/05:30pm 15.5 W 16 20 1020.6 - 0.0 - Cloudy 10 - - - -
28/05:00pm 15.6 W 18 23 1020.6 - 0.0 - Partly cloudy 10 - - - -
28/04:30pm 16.2 W 16 23 1020.8 - 0.0 - Partly cloudy 10 - - - -
28/04:05pm 16.0 WSW 17 21 1020.9 - 0.0 - Partly cloudy 10 - - - -
28/04:00pm 15.9 WSW 17 22 1020.9 - 0.0 - Partly cloudy 10 - - - -
28/03:30pm 16.5 W 19 22 1021.0 - 0.0 - Partly cloudy 10 - - - -
28/03:00pm 16.1 W 19 22 1021.1 - 0.0 - Cloudy 10 - - - -
28/02:30pm 16.3 W 16 20 1021.4 - 0.0 - Cloudy 10 - - - -
28/02:00pm 15.8 W 15 19 1021.7 - 0.0 - Cloudy 10 - - - -
28/01:30pm 15.6 WSW 15 18 1022.0 - 0.0 - Cloudy 10 - - - -
28/01:00pm 15.7 W 15 19 1022.2 - 0.0 - Cloudy 10 - - - -
28/12:30pm 15.9 WNW 12 15 1022.4 - 0.0 - Cloudy 10 - - - -
28/12:00pm 16.3 W 14 17 1022.4 - 0.0 - Cloudy 10 - - - -
28/11:30am 16.3 W 15 17 1022.6 - 0.0 - Partly cloudy 10 - - - -
28/11:00am 16.4 W 12 15 1022.7 - 0.0 - Partly cloudy 10 - - - -
28/10:30am 16.0 W 12 15 1022.7 - 0.0 - Partly cloudy 10 - - - -
28/10:00am 15.7 W 12 15 1022.7 - 0.0 - Cloudy 10 - - - -
28/09:30am 15.7 W 10 14 1022.4 - 0.0 - Cloudy 10 - - - -
28/09:00am 15.5 W 11 15 1022.2 - 0.8 - Mostly cloudy 10 - - - -
28/08:30am 14.4 W 11 14 1021.9 - 0.8 - Partly cloudy 10 - - - -
28/08:00am 10.1 W 12 16 1021.7 - 0.8 - Partly cloudy 10 - - - -
28/07:52am 9.3 NW 5 15 1021.6 - 0.8 - Partly cloudy 10 - - - -
28/07:30am 8.8 NE 3 5 1021.5 - 0.8 - Partly cloudy 10 - - - -

Other Formats:

Comma delimited format used in spreadsheet applications
http://www.bom.gov.au/fwo/IDT60701/IDT60701.94980.axf

JavaScript Object Notation format (JSON) in row-major order
http://www.bom.gov.au/fwo/IDT60701/IDT60701.94980.json